Time;durP1;ratioP1;P1;durP2;ratioP2;P2;SDS_P1;SDS_P2;PMS_P1;PMS_P2;Temp;Humidity;BMP_temperature;BMP_pressure;BME280_temperature;BME280_humidity;BME280_pressure;Samples;Min_cycle;Max_cycle;Signal;HPM_P1;HPM_P2
2022/06/19 00:02:15;;;;;;;5.70;4.90;;;24.90;99.90;;;;;;5054125;28;20456;-60
2022/06/19 00:04:42;;;;;;;6.07;5.57;;;24.80;99.90;;;;;;5054040;28;20550;-60
2022/06/19 00:07:10;;;;;;;6.00;5.47;;;24.70;99.90;;;;;;5053724;28;20454;-60
2022/06/19 00:09:37;;;;;;;6.73;6.00;;;24.70;99.90;;;;;;5053728;28;20916;-60
2022/06/19 00:12:05;;;;;;;7.80;5.63;;;24.60;99.90;;;;;;5054065;28;20460;-61
2022/06/19 00:14:33;;;;;;;6.10;5.57;;;24.60;99.90;;;;;;5053797;28;20484;-60
2022/06/19 00:17:00;;;;;;;6.80;5.47;;;24.60;99.90;;;;;;5053835;28;20488;-60
2022/06/19 00:19:27;;;;;;;12.97;6.10;;;24.70;99.90;;;;;;5053671;28;20800;-60
2022/06/19 00:21:53;;;;;;;7.00;5.70;;;24.60;99.90;;;;;;5053555;28;20799;-60
2022/06/19 00:24:20;;;;;;;8.00;5.40;;;24.60;99.90;;;;;;5053804;28;20452;-61
2022/06/19 00:26:47;;;;;;;8.90;5.40;;;24.50;99.90;;;;;;5053693;28;20820;-60
2022/06/19 00:29:14;;;;;;;7.50;5.33;;;24.50;99.90;;;;;;5053644;28;20811;-60
2022/06/19 00:31:40;;;;;;;7.00;5.13;;;24.50;99.90;;;;;;5053579;28;20803;-60
2022/06/19 00:34:08;;;;;;;7.67;5.27;;;24.50;99.90;;;;;;5053347;28;20486;-60
2022/06/19 00:36:35;;;;;;;8.20;5.07;;;24.50;99.90;;;;;;5053424;28;20448;-60
2022/06/19 00:39:01;;;;;;;7.40;5.10;;;24.50;99.90;;;;;;5053496;28;20448;-60
2022/06/19 00:41:34;;;;;;;8.90;5.67;;;24.50;99.90;;;;;;5053459;28;20448;-60
2022/06/19 00:44:05;;;;;;;6.53;5.63;;;24.50;99.90;;;;;;5053129;28;20476;-60
2022/06/19 00:46:46;;;;;;;6.13;5.63;;;24.30;99.90;;;;;;5053213;28;20453;-60
2022/06/19 00:49:16;;;;;;;7.00;5.67;;;24.30;99.90;;;;;;5053437;28;20454;-60
2022/06/19 00:51:44;;;;;;;7.67;6.47;;;24.30;99.90;;;;;;5053246;28;20452;-60
2022/06/19 00:54:14;;;;;;;5.77;5.27;;;24.20;99.90;;;;;;5053144;28;20519;-60
2022/06/19 00:56:42;;;;;;;6.60;6.20;;;24.10;99.90;;;;;;5053188;28;20452;-60
2022/06/19 00:59:12;;;;;;;10.50;6.03;;;23.90;99.90;;;;;;5053047;28;20455;-60
2022/06/19 01:01:39;;;;;;;7.60;5.70;;;23.80;99.90;;;;;;5053022;28;20555;-60
2022/06/19 01:04:12;;;;;;;6.17;5.77;;;23.70;99.90;;;;;;5053144;28;20454;-60
2022/06/19 01:06:38;;;;;;;6.47;5.93;;;23.50;99.90;;;;;;5053116;28;20441;-60
2022/06/19 01:09:05;;;;;;;6.60;6.03;;;23.40;99.90;;;;;;5052955;28;20455;-60
2022/06/19 01:11:35;;;;;;;7.37;6.73;;;23.30;99.90;;;;;;5052901;28;20444;-60
2022/06/19 01:14:03;;;;;;;6.97;6.37;;;23.20;99.90;;;;;;5052641;28;20491;-60
2022/06/19 01:16:31;;;;;;;8.07;6.90;;;23.20;99.90;;;;;;5052923;28;20543;-60
2022/06/19 01:19:00;;;;;;;6.90;6.10;;;23.10;99.90;;;;;;5052853;28;20448;-60
2022/06/19 01:21:31;;;;;;;6.63;6.10;;;23.00;99.90;;;;;;5052877;28;20506;-60
2022/06/19 01:24:05;;;;;;;6.60;5.97;;;22.90;99.90;;;;;;5052782;28;20471;-61
2022/06/19 01:26:38;;;;;;;6.77;6.27;;;22.80;99.90;;;;;;5052645;28;20444;-60
2022/06/19 01:29:04;;;;;;;7.77;6.33;;;22.70;99.90;;;;;;5052785;28;20449;-60
2022/06/19 01:31:34;;;;;;;7.93;7.13;;;22.70;99.90;;;;;;5052878;28;20543;-60
2022/06/19 01:34:26;;;;;;;6.90;6.20;;;22.70;99.90;;;;;;5052664;28;20220;-60
2022/06/19 01:36:51;;;;;;;6.60;6.10;;;22.70;99.90;;;;;;5052333;28;20444;-60
2022/06/19 01:39:18;;;;;;;8.07;5.87;;;22.70;99.90;;;;;;5052765;28;20453;-60
2022/06/19 01:41:46;;;;;;;6.63;6.07;;;22.70;99.90;;;;;;5052508;28;20956;-60
2022/06/19 01:44:12;;;;;;;7.70;6.40;;;22.70;99.90;;;;;;5052435;28;20480;-60
2022/06/19 01:46:39;;;;;;;7.70;5.93;;;22.70;99.90;;;;;;5052530;28;20454;-60
2022/06/19 01:49:06;;;;;;;6.97;5.77;;;22.70;99.90;;;;;;5052511;28;20452;-60
2022/06/19 01:51:33;;;;;;;6.27;5.77;;;22.80;99.90;;;;;;5052380;28;20462;-60
2022/06/19 01:54:03;;;;;;;9.27;5.90;;;22.80;99.90;;;;;;5052528;28;20911;-60
2022/06/19 01:56:31;;;;;;;7.20;6.17;;;22.80;99.90;;;;;;5052513;28;20444;-60
2022/06/19 01:59:04;;;;;;;6.97;6.20;;;22.90;99.90;;;;;;5054524;28;20447;-60
2022/06/19 02:01:30;;;;;;;6.57;6.17;;;22.80;99.90;;;;;;5056448;28;20444;-60
2022/06/19 02:04:00;;;;;;;9.60;6.10;;;22.80;99.90;;;;;;5056198;28;20510;-60
2022/06/19 02:06:30;;;;;;;7.20;6.17;;;22.80;99.90;;;;;;5056404;28;20450;-60
2022/06/19 02:08:58;;;;;;;7.00;6.30;;;22.80;99.90;;;;;;5056341;28;20419;-60
2022/06/19 02:11:26;;;;;;;6.67;6.00;;;22.70;99.90;;;;;;5056283;28;20448;-60
2022/06/19 02:13:53;;;;;;;5.80;5.40;;;22.60;99.90;;;;;;5056088;28;20482;-60
2022/06/19 02:16:23;;;;;;;7.17;6.47;;;22.60;99.90;;;;;;5056028;28;20448;-60
2022/06/19 02:18:52;;;;;;;9.17;6.43;;;22.50;99.90;;;;;;5056175;28;20448;-60
2022/06/19 02:21:22;;;;;;;6.03;5.33;;;22.50;99.90;;;;;;5056141;28;20531;-60
2022/06/19 02:23:50;;;;;;;6.67;6.07;;;22.50;99.90;;;;;;5056048;28;20458;-60
2022/06/19 02:26:18;;;;;;;6.50;5.97;;;22.40;99.90;;;;;;5056003;28;20448;-60
2022/06/19 02:28:49;;;;;;;6.60;6.03;;;22.30;99.90;;;;;;5055718;28;20804;-61
2022/06/19 02:31:16;;;;;;;7.43;6.50;;;22.30;99.90;;;;;;5055811;28;20974;-60
2022/06/19 02:33:49;;;;;;;6.07;5.63;;;22.40;99.90;;;;;;5055848;28;20478;-60
2022/06/19 02:36:40;;;;;;;6.50;5.47;;;22.30;99.90;;;;;;5055681;28;20807;-60
2022/06/19 02:39:24;;;;;;;7.20;5.57;;;22.20;99.90;;;;;;5055714;28;20427;-60
2022/06/19 02:42:01;;;;;;;7.07;6.57;;;22.20;99.90;;;;;;5055735;28;20458;-60
2022/06/19 02:44:33;;;;;;;7.83;6.33;;;22.10;99.90;;;;;;5055467;28;20817;-60
2022/06/19 02:46:59;;;;;;;9.17;6.90;;;22.10;99.90;;;;;;5055557;28;20455;-60
2022/06/19 02:49:27;;;;;;;6.87;6.23;;;22.10;99.90;;;;;;5055454;28;20453;-60
2022/06/19 02:51:54;;;;;;;7.43;6.83;;;22.20;99.90;;;;;;5055185;28;20448;-61
2022/06/19 02:54:20;;;;;;;7.03;6.50;;;22.20;99.90;;;;;;5055459;28;20578;-61
2022/06/19 02:56:47;;;;;;;7.33;6.70;;;22.20;99.90;;;;;;5055355;28;20448;-60
2022/06/19 02:59:13;;;;;;;7.03;6.10;;;22.30;99.90;;;;;;5055363;28;20458;-60
2022/06/19 03:01:40;;;;;;;7.00;5.83;;;22.20;99.90;;;;;;5055126;28;20989;-60
2022/06/19 03:04:14;;;;;;;6.93;6.30;;;22.30;99.90;;;;;;5055199;28;20506;-60
2022/06/19 03:06:42;;;;;;;7.33;6.47;;;22.30;99.90;;;;;;5055082;28;20440;-60
2022/06/19 03:09:09;;;;;;;6.90;6.20;;;22.30;99.90;;;;;;5054697;28;20871;-60
2022/06/19 03:11:35;;;;;;;13.93;7.13;;;22.40;99.90;;;;;;5054436;28;20816;-60
2022/06/19 03:14:02;;;;;;;7.63;6.40;;;22.40;99.90;;;;;;5055373;28;20476;-60
2022/06/19 03:16:28;;;;;;;7.80;6.23;;;22.50;99.90;;;;;;5054924;28;20448;-60
2022/06/19 03:18:57;;;;;;;6.70;6.30;;;22.60;99.90;;;;;;5055270;28;20448;-60
2022/06/19 03:21:24;;;;;;;7.50;6.67;;;22.70;99.90;;;;;;5055073;28;20535;-60
2022/06/19 03:23:51;;;;;;;6.70;6.10;;;22.70;99.90;;;;;;5054875;28;20451;-60
2022/06/19 03:26:18;;;;;;;8.40;6.73;;;22.70;99.90;;;;;;5054851;28;20460;-60
2022/06/19 03:28:44;;;;;;;6.60;6.10;;;22.60;99.90;;;;;;5054740;28;20543;-60
2022/06/19 03:31:13;;;;;;;7.57;6.87;;;22.60;99.90;;;;;;5054614;28;20970;-60
2022/06/19 03:33:39;;;;;;;8.00;7.20;;;22.70;99.90;;;;;;5054452;28;20449;-60
2022/06/19 03:36:06;;;;;;;6.57;6.00;;;22.60;99.90;;;;;;5054528;28;20452;-60
2022/06/19 03:38:33;;;;;;;6.93;6.33;;;22.60;99.90;;;;;;5054699;28;20452;-60
2022/06/19 03:41:00;;;;;;;6.37;5.87;;;22.60;99.90;;;;;;5054518;28;20454;-60
2022/06/19 03:43:27;;;;;;;7.00;6.30;;;22.70;99.90;;;;;;5054337;28;20551;-60
2022/06/19 03:45:58;;;;;;;7.63;6.67;;;22.80;99.90;;;;;;5054234;28;20457;-60
2022/06/19 03:48:25;;;;;;;6.70;6.30;;;22.90;99.90;;;;;;5054583;28;20455;-60
2022/06/19 03:50:52;;;;;;;6.97;6.13;;;22.90;99.90;;;;;;5054440;28;20450;-60
2022/06/19 03:53:19;;;;;;;6.07;5.60;;;23.00;99.90;;;;;;5054366;28;20808;-60
2022/06/19 03:55:45;;;;;;;6.97;6.37;;;23.20;99.90;;;;;;5054251;28;20490;-60
2022/06/19 03:58:13;;;;;;;6.70;6.20;;;23.30;99.90;;;;;;5054118;28;20526;-60
2022/06/19 04:00:40;;;;;;;6.87;6.37;;;23.40;99.90;;;;;;5054010;28;20452;-60
2022/06/19 04:03:07;;;;;;;7.07;6.57;;;23.50;99.90;;;;;;5054227;28;20800;-60
2022/06/19 04:05:33;;;;;;;9.13;6.40;;;23.40;99.90;;;;;;5054205;28;20480;-60
2022/06/19 04:08:00;;;;;;;8.30;6.90;;;23.50;99.90;;;;;;5054021;28;20543;-60
2022/06/19 04:10:27;;;;;;;8.73;7.83;;;23.70;99.90;;;;;;5053991;28;20494;-60
2022/06/19 04:12:54;;;;;;;7.70;7.00;;;23.70;99.90;;;;;;5053854;28;20448;-60
2022/06/19 04:15:22;;;;;;;8.23;7.07;;;23.80;99.90;;;;;;5053634;28;20480;-60
2022/06/19 04:17:49;;;;;;;8.83;6.40;;;23.80;99.90;;;;;;5053919;28;20807;-60
2022/06/19 04:20:15;;;;;;;7.50;6.87;;;23.80;99.90;;;;;;5053884;28;20455;-60
2022/06/19 04:22:42;;;;;;;7.83;6.47;;;24.00;99.90;;;;;;5053402;28;20452;-60
2022/06/19 04:25:13;;;;;;;7.97;7.00;;;24.00;99.90;;;;;;5053650;28;20448;-60
2022/06/19 04:27:40;;;;;;;8.00;7.20;;;23.90;99.90;;;;;;5053472;28;20456;-60
2022/06/19 04:30:08;;;;;;;10.17;7.27;;;23.80;99.90;;;;;;5053725;28;20807;-60
2022/06/19 04:32:35;;;;;;;17.97;7.10;;;23.80;99.90;;;;;;5053664;28;20454;-60
2022/06/19 04:35:02;;;;;;;7.27;6.60;;;23.80;99.90;;;;;;5053498;28;20476;-60
2022/06/19 04:37:28;;;;;;;7.67;6.97;;;23.80;99.90;;;;;;5053331;28;20549;-60
2022/06/19 04:39:55;;;;;;;8.27;7.30;;;23.90;99.90;;;;;;5053392;28;20848;-60
2022/06/19 04:42:21;;;;;;;8.20;6.50;;;23.90;99.90;;;;;;5053045;28;20811;-60
2022/06/19 04:44:48;;;;;;;9.83;7.60;;;24.00;99.90;;;;;;5053474;28;20829;-60
2022/06/19 04:47:14;;;;;;;7.73;7.13;;;24.00;99.90;;;;;;5053292;28;20459;-60
2022/06/19 04:49:42;;;;;;;7.43;6.80;;;24.10;99.90;;;;;;5053396;28;20452;-60
2022/06/19 04:52:08;;;;;;;8.60;7.70;;;24.10;99.90;;;;;;5052933;28;20459;-60
2022/06/19 04:54:35;;;;;;;7.90;7.23;;;24.20;99.90;;;;;;5053026;28;20803;-60
2022/06/19 04:57:01;;;;;;;9.90;7.73;;;24.40;99.90;;;;;;5053192;28;20490;-60
2022/06/19 04:59:28;;;;;;;8.80;7.47;;;24.50;99.90;;;;;;5053220;28;20523;-60
2022/06/19 05:01:54;;;;;;;8.97;7.70;;;24.60;99.90;;;;;;5053120;28;20571;-60
2022/06/19 05:04:21;;;;;;;8.87;7.50;;;24.70;99.90;;;;;;5053061;28;20451;-60
2022/06/19 05:06:49;;;;;;;9.17;7.90;;;24.90;99.90;;;;;;5052971;28;20448;-60
2022/06/19 05:09:15;;;;;;;8.97;8.03;;;24.90;99.90;;;;;;5052807;28;20448;-60
2022/06/19 05:11:42;;;;;;;7.93;7.33;;;25.00;99.90;;;;;;5053085;28;20455;-60
2022/06/19 05:14:08;;;;;;;8.03;7.33;;;25.20;99.90;;;;;;5052978;28;20691;-60
2022/06/19 05:16:35;;;;;;;8.50;7.70;;;25.40;99.90;;;;;;5052757;28;20918;-60
2022/06/19 05:19:03;;;;;;;7.60;7.03;;;25.50;99.90;;;;;;5052851;28;20471;-60
2022/06/19 05:21:29;;;;;;;7.93;7.20;;;25.60;99.90;;;;;;5053233;28;20955;-61
2022/06/19 05:23:57;;;;;;;8.57;7.73;;;25.70;99.90;;;;;;5052609;28;20449;-60
2022/06/19 05:26:27;;;;;;;7.23;6.63;;;25.80;99.90;;;;;;5052992;28;20783;-60
2022/06/19 05:28:55;;;;;;;7.30;6.70;;;26.00;99.90;;;;;;5052793;28;20872;-60
2022/06/19 05:31:22;;;;;;;10.60;6.30;;;26.20;99.90;;;;;;5052747;28;20459;-61
2022/06/19 05:33:49;;;;;;;8.23;7.33;;;26.30;99.90;;;;;;5054629;28;20444;-60
2022/06/19 05:36:16;;;;;;;11.93;6.83;;;;;;;;;;5056622;28;20484;-60
2022/06/19 05:38:44;;;;;;;7.43;6.77;;;;;;;;;;5057058;28;20456;-60
2022/06/19 05:41:12;;;;;;;7.07;6.50;;;;;;;;;;5056830;28;20448;-60
2022/06/19 05:43:39;;;;;;;8.50;7.07;;;;;;;;;;5056620;28;20564;-60
2022/06/19 05:46:07;;;;;;;12.70;7.03;;;;;;;;;;5056673;28;20444;-60
2022/06/19 05:48:36;;;;;;;7.60;6.83;;;;;;;;;;5056630;28;20450;-60
2022/06/19 05:51:04;;;;;;;11.23;6.60;;;;;;;;;;5056338;28;20449;-60
2022/06/19 05:53:32;;;;;;;7.50;6.80;;;;;;;;;;5056568;28;20440;-60
2022/06/19 05:56:00;;;;;;;7.50;6.37;;;;;;;;;;5056472;28;20488;-60
2022/06/19 05:58:28;;;;;;;6.73;6.07;;;;;;;;;;5056496;28;20451;-61
2022/06/19 06:00:55;;;;;;;8.40;5.90;;;;;;;;;;5056464;28;20453;-60
2022/06/19 06:03:22;;;;;;;11.10;7.10;;;;;;;;;;5056291;28;20570;-60
2022/06/19 06:05:50;;;;;;;11.33;6.00;;;;;;;;;;5056178;28;20448;-61
2022/06/19 06:08:17;;;;;;;7.97;7.03;;;;;;;;;;5056545;28;20448;-60
2022/06/19 06:10:45;;;;;;;20.40;7.30;;;;;;;;;;5056312;28;20454;-60
2022/06/19 06:13:13;;;;;;;8.07;6.43;;;;;;;;;;5056136;28;20543;-60
2022/06/19 06:15:41;;;;;;;11.97;6.70;;;;;;;;;;5056085;28;20503;-61
2022/06/19 06:18:08;;;;;;;8.17;6.57;;;;;;;;;;5055961;28;20460;-61
2022/06/19 06:20:35;;;;;;;12.20;6.90;;;;;;;;;;5056230;28;20452;-61
2022/06/19 06:23:02;;;;;;;9.53;5.90;;;;;;;;;;5056140;28;20460;-60
2022/06/19 06:25:29;;;;;;;11.03;6.10;;;;;;;;;;5055967;28;20789;-60
2022/06/19 06:27:56;;;;;;;11.10;6.23;;;;;;;;;;5055912;28;20452;-61
2022/06/19 06:30:23;;;;;;;12.97;5.80;;;;;;;;;;5055781;28;20448;-61
2022/06/19 06:32:51;;;;;;;13.73;7.03;;;;;;;;;;5055635;28;20452;-60
2022/06/19 06:35:18;;;;;;;12.33;5.40;;;;;;;;;;5055651;28;20508;-61
2022/06/19 06:37:45;;;;;;;10.07;5.63;;;;;;;;;;5055760;28;20539;-60
2022/06/19 06:40:13;;;;;;;11.93;6.57;;;;;;;;;;5056040;28;20459;-60
2022/06/19 06:42:39;;;;;;;12.80;6.10;;;;;;;;;;5055542;28;20535;-61
2022/06/19 06:45:08;;;;;;;8.73;6.00;;;;;;;;;;5055213;28;20487;-60
2022/06/19 06:47:34;;;;;;;7.33;5.50;;;;;;;;;;5055720;28;20452;-60
2022/06/19 06:50:03;;;;;;;12.93;6.60;;;;;;;;;;5055673;28;20455;-61
2022/06/19 06:52:30;;;;;;;9.10;5.20;;;;;;;;;;5055427;28;20539;-61
2022/06/19 06:54:57;;;;;;;12.50;5.50;;;;;;;;;;5055352;28;20448;-61
2022/06/19 06:57:24;;;;;;;18.07;6.37;;;;;;;;;;5055284;28;20491;-60
2022/06/19 06:59:50;;;;;;;8.90;5.17;;;;;;;;;;5055191;28;20951;-61
2022/06/19 07:02:17;;;;;;;13.90;6.03;;;;;;;;;;5055532;28;20458;-60
2022/06/19 07:04:44;;;;;;;10.67;5.33;;;;;;;;;;5055241;28;20543;-61
2022/06/19 07:07:13;;;;;;;13.77;5.53;;;;;;;;;;5055124;28;20448;-60
2022/06/19 07:09:39;;;;;;;10.70;5.33;;;;;;;;;;5055107;28;20539;-61
2022/06/19 07:12:07;;;;;;;10.90;5.77;;;;;;;;;;5055016;28;20444;-61
2022/06/19 07:14:34;;;;;;;12.43;5.70;;;;;;;;;;5055098;28;20455;-61
2022/06/19 07:17:01;;;;;;;12.97;5.60;;;;;;;;;;5054784;28;20487;-61
2022/06/19 07:19:28;;;;;;;11.53;4.60;;;;;;;;;;5055079;28;20453;-61
2022/06/19 07:21:55;;;;;;;12.03;5.43;;;;;;;;;;5054988;28;20499;-61
2022/06/19 07:24:25;;;;;;;6.70;4.70;;;;;;;;;;5054820;28;20460;-61
2022/06/19 07:26:52;;;;;;;14.30;6.17;;;;;;;;;;5054606;28;20445;-61
2022/06/19 07:29:19;;;;;;;10.03;5.40;;;;;;;;;;5054923;28;20454;-60
2022/06/19 07:31:46;;;;;;;6.80;5.30;;;;;;;;;;5054752;28;20799;-60
2022/06/19 07:34:13;;;;;;;7.03;4.83;;;;;;;;;;5054674;28;20519;-60
2022/06/19 07:36:40;;;;;;;11.83;5.80;;;;;;;;;;5054321;28;20575;-61
2022/06/19 07:39:07;;;;;;;11.03;4.93;;;;;;;;;;5054476;28;20449;-61
2022/06/19 07:41:35;;;;;;;6.90;4.87;;;;;;;;;;5054337;28;20962;-61
2022/06/19 07:44:02;;;;;;;8.93;4.83;;;;;;;;;;5054289;28;20464;-61
2022/06/19 07:46:29;;;;;;;10.60;5.07;;;;;;;;;;5054406;28;20951;-60
2022/06/19 07:51:40;;;;;;;8.13;5.00;;;;;;;;;;5054176;28;20444;-60
2022/06/19 07:54:08;;;;;;;12.20;5.20;;;;;;;;;;5054326;28;20842;-61
2022/06/19 07:56:36;;;;;;;14.47;4.70;;;;;;;;;;5053570;28;20480;-61
2022/06/19 07:59:03;;;;;;;8.40;4.60;;;;;;;;;;5054001;28;20456;-61
2022/06/19 08:01:30;;;;;;;10.80;5.80;;;;;;;;;;5054106;28;20440;-61
2022/06/19 08:03:57;;;;;;;14.77;4.93;;;31.90;94.40;;;;;;5054042;28;20444;-61
2022/06/19 08:06:25;;;;;;;14.47;4.77;;;31.80;94.80;;;;;;5053785;28;20444;-61
2022/06/19 08:08:51;;;;;;;12.10;4.80;;;32.00;94.10;;;;;;5054035;28;20502;-61
2022/06/19 08:11:18;;;;;;;9.23;4.27;;;32.20;94.00;;;;;;5054012;28;20730;-61
2022/06/19 08:13:46;;;;;;;14.07;4.60;;;32.30;93.30;;;;;;5053711;28;21001;-61
2022/06/19 08:16:12;;;;;;;10.50;4.47;;;32.20;92.60;;;;;;5053876;28;20537;-61
2022/06/19 08:18:39;;;;;;;9.57;5.00;;;32.40;93.20;;;;;;5053781;28;20448;-60
2022/06/19 08:21:06;;;;;;;12.30;4.53;;;32.50;93.10;;;;;;5053543;28;20547;-61
2022/06/19 08:23:33;;;;;;;8.90;4.30;;;32.60;92.60;;;;;;5053596;28;20445;-61
2022/06/19 08:26:00;;;;;;;16.20;4.90;;;32.70;92.30;;;;;;5053844;28;20448;-61
2022/06/19 08:28:30;;;;;;;14.17;5.20;;;32.80;92.10;;;;;;5053618;28;20948;-61
2022/06/19 08:30:57;;;;;;;18.37;5.10;;;32.90;92.20;;;;;;5053512;28;20454;-61
2022/06/19 08:33:24;;;;;;;13.83;4.97;;;33.00;92.20;;;;;;5053299;28;20459;-61
2022/06/19 08:35:53;;;;;;;15.63;5.00;;;33.10;92.00;;;;;;5053297;28;20477;-61
2022/06/19 08:38:22;;;;;;;9.07;4.40;;;33.30;91.40;;;;;;5053468;28;20456;-61
2022/06/19 08:41:14;;;;;;;8.37;3.83;;;33.50;90.50;;;;;;5053294;28;20449;-61
2022/06/19 08:43:58;;;;;;;11.47;4.53;;;33.50;90.70;;;;;;5053109;28;20508;-61
2022/06/19 08:46:34;;;;;;;10.37;4.67;;;33.70;90.10;;;;;;5053624;28;20854;-61
2022/06/19 08:49:14;;;;;;;9.50;3.90;;;33.90;90.10;;;;;;5053030;28;21003;-61
2022/06/19 08:51:57;;;;;;;16.53;4.00;;;34.00;82.90;;;;;;5053322;28;20881;-61
2022/06/19 08:54:35;;;;;;;9.00;3.33;;;34.20;80.00;;;;;;5052952;28;20448;-61
2022/06/19 08:57:07;;;;;;;48.80;6.97;;;34.50;80.10;;;;;;5053074;28;20483;-61
2022/06/19 08:59:46;;;;;;;13.90;4.00;;;34.50;76.50;;;;;;5052983;28;21019;-61
2022/06/19 09:02:26;;;;;;;11.93;3.90;;;34.70;75.80;;;;;;5052845;28;20448;-61
2022/06/19 09:08:00;;;;;;;12.80;4.53;;;35.00;73.00;;;;;;5052881;28;20444;-61
2022/06/19 09:10:39;;;;;;;9.10;3.73;;;35.10;73.00;;;;;;5053053;28;20448;-61
2022/06/19 09:13:23;;;;;;;12.10;4.10;;;35.10;70.80;;;;;;5052765;28;20448;-61
2022/06/19 09:15:59;;;;;;;17.77;5.10;;;35.20;71.50;;;;;;5052982;28;20503;-61
2022/06/19 09:18:36;;;;;;;15.13;4.73;;;35.40;70.30;;;;;;5048049;28;20455;-61
2022/06/19 09:21:09;;;;;;;17.00;4.57;;;35.50;70.50;;;;;;5051872;28;21020;-61
2022/06/19 09:23:52;;;;;;;15.23;3.80;;;35.60;70.10;;;;;;5052688;28;20789;-61
2022/06/19 09:26:22;;;;;;;8.23;4.07;;;35.60;67.00;;;;;;5052582;28;20542;-61
2022/06/19 09:28:53;;;;;;;13.23;4.13;;;35.70;67.50;;;;;;5052721;28;20459;-61
2022/06/19 09:31:26;;;;;;;16.87;3.70;;;35.80;67.50;;;;;;5052782;28;20459;-61
2022/06/19 09:34:00;;;;;;;10.80;3.70;;;35.90;66.60;;;;;;5052646;28;20444;-61
2022/06/19 09:36:34;;;;;;;15.83;4.10;;;35.90;65.80;;;;;;5052500;28;20595;-61
2022/06/19 09:39:07;;;;;;;9.00;4.30;;;36.00;64.90;;;;;;5052747;28;20451;-61
2022/06/19 09:41:38;;;;;;;12.70;3.90;;;36.00;64.00;;;;;;5052569;28;20452;-61
2022/06/19 09:44:09;;;;;;;15.97;4.70;;;36.20;64.60;;;;;;5052448;28;20832;-61
2022/06/19 09:46:42;;;;;;;13.53;4.53;;;36.40;62.90;;;;;;5052328;28;20458;-61
2022/06/19 09:49:17;;;;;;;15.50;4.10;;;36.50;61.70;;;;;;5052586;28;20456;-61
2022/06/19 09:51:50;;;;;;;14.03;4.20;;;36.60;61.20;;;;;;5052511;28;20456;-61
2022/06/19 09:54:22;;;;;;;15.90;3.90;;;36.80;60.90;;;;;;5052469;28;20455;-61
2022/06/19 09:56:54;;;;;;;14.43;4.10;;;36.90;60.20;;;;;;5052254;28;21033;-61
2022/06/19 09:59:26;;;;;;;8.37;3.90;;;37.10;60.90;;;;;;5052604;28;20836;-61
2022/06/19 10:01:57;;;;;;;21.80;4.73;;;37.20;58.70;;;;;;5052557;28;20456;-61
2022/06/19 10:04:35;;;;;;;24.93;3.80;;;37.20;58.20;;;;;;5052355;28;20475;-61
2022/06/19 10:07:08;;;;;;;10.13;3.63;;;37.10;57.30;;;;;;5052287;28;20453;-61
2022/06/19 10:09:37;;;;;;;14.70;4.27;;;37.20;56.80;;;;;;5052544;28;20787;-61
2022/06/19 10:12:07;;;;;;;19.13;4.90;;;37.20;56.00;;;;;;5052402;28;20452;-62
2022/06/19 10:14:38;;;;;;;14.20;4.43;;;37.20;55.30;;;;;;5052303;28;20487;-61
2022/06/19 10:17:15;;;;;;;20.57;4.43;;;37.30;54.90;;;;;;5052096;28;20484;-61
2022/06/19 10:19:46;;;;;;;14.33;4.80;;;37.50;54.90;;;;;;5053490;28;20449;-61
2022/06/19 10:22:40;;;;;;;13.00;4.53;;;37.40;54.50;;;;;;5056153;28;20484;-61
2022/06/19 10:25:27;;;;;;;14.83;4.17;;;37.60;55.20;;;;;;5056011;28;20449;-61
2022/06/19 10:28:03;;;;;;;17.00;4.77;;;37.50;54.30;;;;;;5055862;28;20536;-62
2022/06/19 10:30:36;;;;;;;12.10;3.90;;;37.60;53.80;;;;;;5055983;28;20810;-61
2022/06/19 10:33:17;;;;;;;21.53;4.23;;;37.60;53.80;;;;;;5055900;28;20453;-61
2022/06/19 10:35:52;;;;;;;12.60;4.57;;;37.60;53.80;;;;;;5055417;28;20459;-61
2022/06/19 10:38:34;;;;;;;24.57;5.10;;;37.40;53.40;;;;;;5055635;28;20479;-62
2022/06/19 10:41:05;;;;;;;12.00;4.70;;;37.60;53.70;;;;;;5055775;28;20535;-61
2022/06/19 10:43:44;;;;;;;16.73;5.13;;;37.70;53.70;;;;;;5055369;28;20482;-61
2022/06/19 10:46:13;;;;;;;16.80;5.17;;;37.80;53.40;;;;;;5055615;28;20457;-61
2022/06/19 10:48:47;;;;;;;20.97;5.00;;;37.80;53.60;;;;;;5055490;28;20455;-61
2022/06/19 10:51:26;;;;;;;16.17;5.77;;;37.70;53.00;;;;;;5055357;28;20444;-61
2022/06/19 10:54:11;;;;;;;20.20;6.93;;;37.70;53.10;;;;;;5055480;28;20452;-61
2022/06/19 10:56:47;;;;;;;19.30;6.63;;;38.10;53.00;;;;;;5055345;28;20481;-61
2022/06/19 10:59:14;;;;;;;16.43;5.90;;;38.20;52.30;;;;;;5055208;28;20807;-61
2022/06/19 11:04:36;;;;;;;17.27;8.03;;;38.20;51.80;;;;;;5055226;28;20581;-62
2022/06/19 11:07:10;;;;;;;21.13;8.83;;;38.30;51.50;;;;;;5055295;28;20444;-61
2022/06/19 11:09:39;;;;;;;17.37;7.80;;;38.30;52.00;;;;;;5055079;28;20486;-62
2022/06/19 11:12:16;;;;;;;20.50;7.67;;;38.50;51.70;;;;;;5054959;28;20450;-61
2022/06/19 11:14:47;;;;;;;14.83;6.87;;;38.50;51.00;;;;;;5055108;28;20454;-62
2022/06/19 11:17:16;;;;;;;13.03;6.00;;;38.50;51.00;;;;;;5054900;28;20486;-61
2022/06/19 11:19:46;;;;;;;21.27;5.80;;;38.60;51.30;;;;;;5054811;28;20546;-62
2022/06/19 11:22:36;;;;;;;18.30;5.93;;;38.60;50.00;;;;;;5054821;28;20456;-62
2022/06/19 11:25:31;;;;;;;14.33;4.57;;;38.50;50.70;;;;;;5054951;28;20486;-61
2022/06/19 11:28:02;;;;;;;21.67;9.87;;;38.50;50.40;;;;;;5054808;28;20545;-61
2022/06/19 11:30:33;;;;;;;27.57;20.53;;;38.70;51.10;;;;;;5053864;28;20454;-62
2022/06/19 11:33:00;;;;;;;26.77;23.60;;;38.80;50.50;;;;;;5054728;28;20535;-62
2022/06/19 11:35:38;;;;;;;33.20;23.30;;;39.00;50.20;;;;;;5054668;28;20442;-61
2022/06/19 11:38:06;;;;;;;25.40;22.43;;;39.10;50.00;;;;;;5054498;28;20480;-61
2022/06/19 11:40:36;;;;;;;27.57;21.37;;;39.10;49.60;;;;;;5054545;28;20471;-62
2022/06/19 11:43:05;;;;;;;28.80;24.87;;;39.10;49.40;;;;;;5053991;28;20475;-62
2022/06/19 11:45:34;;;;;;;35.17;27.23;;;39.20;49.70;;;;;;5054301;28;20460;-62
2022/06/19 11:48:10;;;;;;;28.73;25.47;;;39.30;49.40;;;;;;5054457;28;20456;-62
2022/06/19 11:50:49;;;;;;;34.00;25.80;;;39.40;49.60;;;;;;5054431;28;20456;-62
2022/06/19 11:53:23;;;;;;;37.30;27.33;;;39.50;49.70;;;;;;5054259;28;20459;-62
2022/06/19 11:55:51;;;;;;;26.73;21.13;;;39.30;49.30;;;;;;5054437;28;20807;-62
2022/06/19 11:58:27;;;;;;;32.77;21.80;;;39.30;49.00;;;;;;5054238;28;20490;-62
2022/06/19 12:00:58;;;;;;;31.03;18.53;;;39.10;49.60;;;;;;5054283;28;20456;-61
2022/06/19 12:03:30;;;;;;;19.87;13.70;;;39.20;49.50;;;;;;5054036;28;20459;-62
2022/06/19 12:06:01;;;;;;;12.00;8.53;;;39.40;49.40;;;;;;5053792;28;20456;-59
2022/06/19 12:08:31;;;;;;;15.40;6.13;;;39.40;48.90;;;;;;5053947;28;20457;-59
2022/06/19 12:11:00;;;;;;;12.07;5.70;;;39.30;49.10;;;;;;5053991;28;20456;-59
2022/06/19 12:13:29;;;;;;;15.77;6.63;;;39.50;48.80;;;;;;5053861;28;20448;-59
2022/06/19 12:16:02;;;;;;;10.03;5.33;;;39.50;48.20;;;;;;5053776;28;20790;-59
2022/06/19 12:18:29;;;;;;;16.63;4.90;;;39.50;48.10;;;;;;5053590;28;20487;-59
2022/06/19 12:20:59;;;;;;;10.37;3.97;;;39.50;47.80;;;;;;5053793;28;20553;-59
2022/06/19 12:23:32;;;;;;;13.30;4.60;;;39.30;48.00;;;;;;5053620;28;20452;-59
2022/06/19 12:26:02;;;;;;;16.10;4.40;;;39.50;47.50;;;;;;5053570;28;20497;-59
2022/06/19 12:28:34;;;;;;;12.53;4.80;;;39.60;47.90;;;;;;5053521;28;20863;-59
2022/06/19 12:31:06;;;;;;;14.73;4.63;;;39.60;47.50;;;;;;5053474;28;20449;-62
2022/06/19 12:33:36;;;;;;;14.70;5.30;;;39.60;47.90;;;;;;5053400;28;20446;-59
2022/06/19 12:36:04;;;;;;;15.47;5.10;;;39.40;52.10;;;;;;5053247;28;20475;-59
2022/06/19 12:38:34;;;;;;;10.93;5.30;;;39.10;53.90;;;;;;5053385;28;20498;-59
2022/06/19 12:41:09;;;;;;;16.87;5.07;;;38.80;55.60;;;;;;5053255;28;20451;-59
2022/06/19 12:43:46;;;;;;;13.03;4.90;;;38.40;56.90;;;;;;5052669;28;20488;-59
2022/06/19 12:46:27;;;;;;;12.50;5.50;;;38.20;57.70;;;;;;5053412;28;20450;-62
2022/06/19 12:49:03;;;;;;;11.27;4.97;;;38.10;57.50;;;;;;5053233;28;20486;-62
2022/06/19 12:51:36;;;;;;;6.60;4.90;;;38.20;56.70;;;;;;5053254;28;20448;-61
2022/06/19 12:54:35;;;;;;;11.50;6.03;;;37.80;57.10;;;;;;5053079;28;20450;-62
2022/06/19 12:57:09;;;;;;;10.77;4.80;;;37.60;56.90;;;;;;5053102;28;20483;-61
2022/06/19 12:59:58;;;;;;;11.60;5.30;;;37.60;56.90;;;;;;5053103;28;20453;-61
2022/06/19 13:02:33;;;;;;;19.90;5.33;;;37.60;56.80;;;;;;5052564;28;20493;-61
2022/06/19 13:05:11;;;;;;;11.90;4.17;;;37.70;56.80;;;;;;5053171;28;20451;-59
2022/06/19 13:07:53;;;;;;;14.50;4.90;;;37.60;56.60;;;;;;5053029;28;20452;-61
2022/06/19 13:10:46;;;;;;;11.57;4.67;;;37.50;56.30;;;;;;5052964;28;20452;-61
2022/06/19 13:13:30;;;;;;;7.67;4.07;;;37.10;56.60;;;;;;5052905;28;20444;-62
2022/06/19 13:15:59;;;;;;;7.13;5.03;;;36.90;56.80;;;;;;5052891;28;20491;-62
2022/06/19 13:18:52;;;;;;;14.27;4.63;;;36.80;56.80;;;;;;5052753;28;20481;-61
2022/06/19 13:21:25;;;;;;;10.20;5.67;;;36.80;56.60;;;;;;5053030;28;20455;-62
2022/06/19 13:24:02;;;;;;;11.37;4.90;;;36.60;56.80;;;;;;5052932;28;20448;-62
2022/06/19 13:29:41;;;;;;;10.17;4.10;;;36.60;57.00;;;;;;5027951;28;20470;-62